createdAt,value
2017-03-31T00:00:20.014Z,57
2017-03-31T00:01:20.790Z,57
2017-03-31T00:02:21.559Z,57
2017-03-31T00:03:22.334Z,57
2017-03-31T00:04:23.106Z,57
2017-03-31T00:05:24.133Z,57
2017-03-31T00:06:24.905Z,57
2017-03-31T00:07:25.676Z,57
2017-03-31T00:08:26.451Z,57
2017-03-31T00:09:27.223Z,57
2017-03-31T00:10:28.247Z,57
2017-03-31T00:11:29.020Z,57
2017-03-31T00:12:29.795Z,57
2017-03-31T00:13:30.569Z,57
2017-03-31T00:14:31.345Z,57
2017-03-31T00:15:32.367Z,57
2017-03-31T00:16:33.140Z,57
2017-03-31T00:17:33.916Z,57
2017-03-31T00:18:34.688Z,57
2017-03-31T00:19:35.460Z,57
2017-03-31T00:20:36.481Z,57
2017-03-31T00:21:37.253Z,57
2017-03-31T00:22:38.026Z,57
2017-03-31T00:23:38.801Z,57
2017-03-31T00:24:39.574Z,57
2017-03-31T00:25:40.594Z,57
2017-03-31T00:26:41.369Z,57
2017-03-31T00:27:42.142Z,58
2017-03-31T00:28:42.914Z,57
2017-03-31T00:29:43.691Z,57
2017-03-31T00:30:44.712Z,58
2017-03-31T00:31:45.484Z,57
2017-03-31T00:32:46.258Z,57
2017-03-31T00:33:47.031Z,57
2017-03-31T00:34:47.801Z,58
2017-03-31T00:35:48.822Z,58
2017-03-31T00:36:49.593Z,58
2017-03-31T00:37:50.550Z,58
2017-03-31T00:38:51.323Z,58
2017-03-31T00:39:52.096Z,57
2017-03-31T00:40:53.123Z,58
2017-03-31T00:41:53.898Z,57
2017-03-31T00:42:54.666Z,57
2017-03-31T00:43:55.438Z,57
2017-03-31T00:44:56.209Z,57
2017-03-31T00:45:57.231Z,57
2017-03-31T00:46:58.033Z,57
2017-03-31T00:47:58.807Z,57
2017-03-31T00:48:59.578Z,57
2017-03-31T00:50:00.349Z,57
2017-03-31T00:51:01.373Z,57
2017-03-31T00:52:02.148Z,58
2017-03-31T00:53:02.923Z,58
2017-03-31T00:54:03.695Z,58
2017-03-31T00:55:04.473Z,58
2017-03-31T00:56:05.495Z,58
2017-03-31T00:57:06.265Z,58
2017-03-31T00:58:07.038Z,58
2017-03-31T00:59:07.811Z,58
2017-03-31T01:00:08.586Z,58
2017-03-31T01:01:09.613Z,58
2017-03-31T01:02:10.386Z,58
2017-03-31T01:03:11.157Z,58
2017-03-31T01:04:11.930Z,58
2017-03-31T01:05:12.702Z,58
2017-03-31T01:06:13.725Z,58
2017-03-31T01:07:14.500Z,58
2017-03-31T01:08:15.275Z,58
2017-03-31T01:09:16.047Z,58
2017-03-31T01:10:16.820Z,58
2017-03-31T01:11:17.845Z,58
2017-03-31T01:12:18.619Z,58
2017-03-31T01:13:19.396Z,58
2017-03-31T01:14:20.166Z,58
2017-03-31T01:15:20.940Z,58
2017-03-31T01:16:21.965Z,59
2017-03-31T01:17:22.738Z,59
2017-03-31T01:18:23.512Z,58
2017-03-31T01:19:24.288Z,58
2017-03-31T01:20:25.063Z,58
2017-03-31T01:21:26.090Z,58
2017-03-31T01:22:26.865Z,58
2017-03-31T01:23:27.636Z,58
2017-03-31T01:24:28.412Z,59
2017-03-31T01:25:29.182Z,58
2017-03-31T01:26:30.210Z,58
2017-03-31T01:27:30.983Z,58
2017-03-31T01:28:31.753Z,58
2017-03-31T01:29:32.526Z,58
2017-03-31T01:30:33.302Z,58
2017-03-31T01:31:34.327Z,58
2017-03-31T01:32:35.099Z,58
2017-03-31T01:33:35.877Z,58
2017-03-31T01:34:36.645Z,58
2017-03-31T01:35:37.418Z,58
2017-03-31T01:36:38.438Z,58
2017-03-31T01:37:39.214Z,58
2017-03-31T01:38:39.984Z,58
2017-03-31T01:39:40.759Z,58
2017-03-31T01:40:41.531Z,58
2017-03-31T01:41:42.552Z,59
2017-03-31T01:42:43.325Z,58
2017-03-31T01:43:44.097Z,58
2017-03-31T01:44:44.865Z,59
2017-03-31T01:45:45.643Z,59
2017-03-31T01:46:46.663Z,58
2017-03-31T01:47:47.433Z,59
2017-03-31T01:48:48.203Z,58
2017-03-31T01:49:48.978Z,59
2017-03-31T01:50:49.754Z,59
2017-03-31T01:51:50.869Z,59
2017-03-31T01:52:51.638Z,59
2017-03-31T01:53:52.413Z,59
2017-03-31T01:54:53.182Z,59
2017-03-31T01:55:53.957Z,59
2017-03-31T01:56:55.028Z,59
2017-03-31T01:57:55.798Z,58
2017-03-31T01:58:56.571Z,59
2017-03-31T01:59:57.345Z,59
2017-03-31T02:00:58.118Z,59
2017-03-31T02:01:59.137Z,59
2017-03-31T02:02:59.907Z,58
2017-03-31T02:04:00.681Z,58
2017-03-31T02:05:01.452Z,58
2017-03-31T02:06:02.223Z,59
2017-03-31T02:07:03.244Z,59
2017-03-31T02:08:04.013Z,59
2017-03-31T02:09:04.783Z,59
2017-03-31T02:10:05.554Z,58
2017-03-31T02:11:06.327Z,59
2017-03-31T02:12:07.347Z,59
2017-03-31T02:13:08.123Z,58
2017-03-31T02:14:08.895Z,58
2017-03-31T02:15:09.669Z,58
2017-03-31T02:16:10.441Z,58
2017-03-31T02:17:11.469Z,58
2017-03-31T02:18:12.233Z,59
2017-03-31T02:19:13.003Z,58
2017-03-31T02:20:13.777Z,58
2017-03-31T02:21:14.546Z,59
2017-03-31T02:22:15.571Z,59
2017-03-31T02:23:16.343Z,59
2017-03-31T02:24:17.116Z,59
2017-03-31T02:25:17.888Z,59
2017-03-31T02:26:18.662Z,59
2017-03-31T02:27:19.686Z,59
2017-03-31T02:28:20.457Z,58
2017-03-31T02:29:21.226Z,59
2017-03-31T02:30:21.996Z,58
2017-03-31T02:31:22.767Z,58
2017-03-31T02:32:23.787Z,59
2017-03-31T02:33:24.559Z,59
2017-03-31T02:34:25.331Z,59
2017-03-31T02:35:26.101Z,59
2017-03-31T02:36:26.870Z,59
2017-03-31T02:37:27.894Z,59
2017-03-31T02:38:28.667Z,59
2017-03-31T02:39:29.439Z,59
2017-03-31T02:40:30.205Z,59
2017-03-31T02:41:30.980Z,58
2017-03-31T02:42:32.004Z,59
2017-03-31T02:43:32.777Z,59
2017-03-31T02:44:33.549Z,59
2017-03-31T02:45:34.320Z,58
2017-03-31T02:46:35.090Z,59
2017-03-31T02:47:36.109Z,59
2017-03-31T02:48:36.883Z,59
2017-03-31T02:49:37.656Z,59
2017-03-31T02:50:38.429Z,59
2017-03-31T02:51:39.204Z,59
2017-03-31T02:52:40.224Z,59
2017-03-31T02:53:40.999Z,59
2017-03-31T02:54:41.771Z,59
2017-03-31T02:55:42.545Z,59
2017-03-31T02:56:43.316Z,59
2017-03-31T02:57:44.338Z,59
2017-03-31T02:58:45.109Z,60
2017-03-31T02:59:45.882Z,59
2017-03-31T03:00:46.654Z,59
2017-03-31T03:01:47.427Z,59
2017-03-31T03:02:48.450Z,59
2017-03-31T03:03:49.219Z,59
2017-03-31T03:04:49.988Z,60
2017-03-31T03:05:50.757Z,60
2017-03-31T03:06:51.532Z,60
2017-03-31T03:07:52.556Z,60
2017-03-31T03:08:53.336Z,60
2017-03-31T03:09:54.097Z,60
2017-03-31T03:10:54.871Z,60
2017-03-31T03:11:55.641Z,60
2017-03-31T03:12:56.662Z,60
2017-03-31T03:13:57.432Z,60
2017-03-31T03:14:58.201Z,60
2017-03-31T03:15:58.971Z,60
2017-03-31T03:16:59.743Z,60
2017-03-31T03:18:00.765Z,60
2017-03-31T03:19:01.536Z,60
2017-03-31T03:20:02.307Z,60
2017-03-31T03:21:03.077Z,60
2017-03-31T03:22:03.851Z,60
2017-03-31T03:23:04.870Z,60
2017-03-31T03:24:05.644Z,60
2017-03-31T03:25:06.416Z,60
2017-03-31T03:26:07.185Z,61
2017-03-31T03:27:07.957Z,61
2017-03-31T03:28:08.977Z,61
2017-03-31T03:29:09.753Z,61
2017-03-31T03:30:10.523Z,61
2017-03-31T03:31:11.296Z,60
2017-03-31T03:32:12.070Z,61
2017-03-31T03:33:13.087Z,61
2017-03-31T03:34:13.861Z,61
2017-03-31T03:35:14.633Z,61
2017-03-31T03:36:15.402Z,61
2017-03-31T03:37:16.178Z,61
2017-03-31T03:38:17.201Z,61
2017-03-31T03:39:17.970Z,61
2017-03-31T03:40:18.741Z,61
2017-03-31T03:41:19.511Z,61
2017-03-31T03:42:20.280Z,61
2017-03-31T03:43:21.304Z,61
2017-03-31T03:44:22.076Z,61
2017-03-31T03:45:22.846Z,60
2017-03-31T03:46:23.617Z,60
2017-03-31T03:47:24.387Z,60
2017-03-31T03:48:25.411Z,61
2017-03-31T03:49:26.185Z,60
2017-03-31T03:50:26.958Z,61
2017-03-31T03:51:27.731Z,61
2017-03-31T03:52:28.503Z,61
2017-03-31T03:53:29.526Z,61
2017-03-31T03:54:30.301Z,61
2017-03-31T03:55:31.070Z,60
2017-03-31T03:56:31.842Z,60
2017-03-31T03:57:32.619Z,60
2017-03-31T03:58:33.642Z,61
2017-03-31T03:59:34.415Z,61
2017-03-31T04:00:35.187Z,60
2017-03-31T04:01:35.961Z,60
2017-03-31T04:02:36.730Z,60
2017-03-31T04:03:37.753Z,60
2017-03-31T04:04:38.530Z,60
2017-03-31T04:05:39.302Z,61
2017-03-31T04:06:40.075Z,60
2017-03-31T04:07:40.847Z,61
2017-03-31T04:08:41.867Z,61
2017-03-31T04:09:42.639Z,61
2017-03-31T04:10:43.414Z,60
2017-03-31T04:11:44.183Z,61
2017-03-31T04:12:44.959Z,61
2017-03-31T04:13:45.977Z,61
2017-03-31T04:14:46.750Z,61
2017-03-31T04:15:47.522Z,61
2017-03-31T04:16:48.293Z,61
2017-03-31T04:17:49.067Z,61
2017-03-31T04:18:50.089Z,61
2017-03-31T04:19:50.862Z,62
2017-03-31T04:20:51.633Z,61
2017-03-31T04:21:52.405Z,62
2017-03-31T04:22:53.174Z,61
2017-03-31T04:23:54.196Z,62
2017-03-31T04:24:54.971Z,62
2017-03-31T04:25:55.746Z,61
2017-03-31T04:26:56.511Z,61
2017-03-31T04:27:57.284Z,62
2017-03-31T04:28:58.306Z,62
2017-03-31T04:29:59.083Z,62
2017-03-31T04:30:59.855Z,62
2017-03-31T04:32:00.627Z,62
2017-03-31T04:33:01.400Z,62
2017-03-31T04:34:02.473Z,62
2017-03-31T04:35:03.246Z,62
2017-03-31T04:36:04.015Z,62
2017-03-31T04:37:04.788Z,62
2017-03-31T04:38:05.565Z,62
2017-03-31T04:39:06.778Z,63
2017-03-31T04:40:07.552Z,62
2017-03-31T04:41:08.323Z,62
2017-03-31T04:42:09.095Z,62
2017-03-31T04:43:09.867Z,62
2017-03-31T04:44:10.892Z,62
2017-03-31T04:45:11.664Z,62
2017-03-31T04:46:12.398Z,62
2017-03-31T04:47:13.169Z,63
2017-03-31T04:48:13.945Z,63
2017-03-31T04:49:14.969Z,63
2017-03-31T04:50:15.740Z,63
2017-03-31T04:51:16.517Z,63
2017-03-31T04:52:17.291Z,63
2017-03-31T04:53:18.069Z,63
2017-03-31T04:54:19.090Z,63
2017-03-31T04:55:19.865Z,63
2017-03-31T04:56:20.636Z,63
2017-03-31T04:57:21.409Z,63
2017-03-31T04:58:22.185Z,63
2017-03-31T04:59:23.211Z,63
2017-03-31T05:00:23.983Z,63
2017-03-31T05:01:24.754Z,63
2017-03-31T05:02:25.529Z,63
2017-03-31T05:03:26.300Z,63
2017-03-31T05:04:27.324Z,63
2017-03-31T05:05:28.097Z,63
2017-03-31T05:06:29.058Z,63
2017-03-31T05:07:29.831Z,63
2017-03-31T05:08:30.606Z,63
2017-03-31T05:09:31.634Z,63
2017-03-31T05:10:32.408Z,63
2017-03-31T05:11:33.185Z,63
2017-03-31T05:12:33.961Z,63
2017-03-31T05:13:34.737Z,63
2017-03-31T05:14:35.763Z,63
2017-03-31T05:15:36.537Z,63
2017-03-31T05:16:37.312Z,63
2017-03-31T05:17:38.096Z,63
2017-03-31T05:18:38.861Z,63
2017-03-31T05:19:39.885Z,64
2017-03-31T05:20:40.659Z,63
2017-03-31T05:21:41.433Z,64
2017-03-31T05:22:42.211Z,64
2017-03-31T05:23:42.988Z,64
2017-03-31T05:24:44.011Z,64
2017-03-31T05:25:44.789Z,64
2017-03-31T05:26:45.564Z,64
2017-03-31T05:27:46.341Z,64
2017-03-31T05:28:47.115Z,64
2017-03-31T05:29:48.138Z,64
2017-03-31T05:30:48.915Z,64
2017-03-31T05:31:49.688Z,64
2017-03-31T05:32:50.469Z,64
2017-03-31T05:33:51.238Z,64
2017-03-31T05:34:52.263Z,64
2017-03-31T05:35:53.037Z,64
2017-03-31T05:36:53.817Z,64
2017-03-31T05:37:54.591Z,64
2017-03-31T05:38:55.367Z,64
2017-03-31T05:39:56.394Z,64
2017-03-31T05:40:57.168Z,64
2017-03-31T05:41:57.949Z,64
2017-03-31T05:42:58.727Z,64
2017-03-31T05:43:59.501Z,64
2017-03-31T05:45:00.527Z,64
2017-03-31T05:46:01.303Z,64
2017-03-31T05:47:02.081Z,63
2017-03-31T05:48:02.856Z,63
2017-03-31T05:49:03.636Z,63
2017-03-31T05:50:04.664Z,64
2017-03-31T05:51:05.442Z,63
2017-03-31T05:52:06.217Z,63
2017-03-31T05:53:06.997Z,63
2017-03-31T05:54:07.771Z,63
2017-03-31T05:55:08.801Z,63
2017-03-31T05:56:09.577Z,63
2017-03-31T05:57:10.354Z,63
2017-03-31T05:58:11.132Z,63
2017-03-31T05:59:11.909Z,63
2017-03-31T06:00:12.941Z,63
2017-03-31T06:01:13.715Z,63
2017-03-31T06:02:14.494Z,62
2017-03-31T06:03:15.269Z,63
2017-03-31T06:04:16.052Z,62
2017-03-31T06:05:17.264Z,62
2017-03-31T06:06:18.044Z,62
2017-03-31T06:07:18.819Z,62
2017-03-31T06:08:19.600Z,62
2017-03-31T06:09:20.380Z,62
2017-03-31T06:10:21.406Z,61
2017-03-31T06:11:22.189Z,61
2017-03-31T06:12:22.966Z,62
2017-03-31T06:13:23.745Z,61
2017-03-31T06:14:24.523Z,61
2017-03-31T06:15:25.554Z,61
2017-03-31T06:16:26.333Z,60
2017-03-31T06:17:27.294Z,61
2017-03-31T06:18:28.077Z,60
2017-03-31T06:19:28.859Z,60
2017-03-31T06:20:29.888Z,60
2017-03-31T06:21:30.670Z,60
2017-03-31T06:22:31.637Z,59
2017-03-31T06:23:32.416Z,60
2017-03-31T06:24:33.191Z,59
2017-03-31T06:25:34.222Z,59
2017-03-31T06:26:35.004Z,59
2017-03-31T06:27:35.783Z,59
2017-03-31T06:28:36.563Z,59
2017-03-31T06:29:37.348Z,58
2017-03-31T06:30:38.377Z,59
2017-03-31T06:31:39.157Z,58
2017-03-31T06:32:39.935Z,58
2017-03-31T06:33:40.714Z,58
2017-03-31T06:34:41.499Z,58
2017-03-31T06:35:42.524Z,58
2017-03-31T06:36:43.307Z,58
2017-03-31T06:37:44.086Z,58
2017-03-31T06:38:44.871Z,57
2017-03-31T06:39:45.649Z,57
2017-03-31T06:40:46.684Z,57
2017-03-31T06:41:47.462Z,57
2017-03-31T06:42:48.241Z,57
2017-03-31T06:43:49.026Z,57
2017-03-31T06:44:49.808Z,57
2017-03-31T06:45:50.842Z,57
2017-03-31T06:46:51.621Z,57
2017-03-31T06:47:52.407Z,57
2017-03-31T06:48:53.210Z,56
2017-03-31T06:49:54.928Z,56
2017-03-31T06:50:55.956Z,56
2017-03-31T06:51:56.741Z,56
2017-03-31T06:52:57.519Z,56
2017-03-31T06:53:58.300Z,56
2017-03-31T06:54:59.079Z,55
2017-03-31T06:56:00.114Z,55
2017-03-31T06:57:00.896Z,55
2017-03-31T06:58:01.676Z,56
2017-03-31T06:59:02.461Z,56
2017-03-31T07:00:03.241Z,56
2017-03-31T07:01:04.275Z,55
2017-03-31T07:02:05.058Z,55
2017-03-31T07:03:05.845Z,55
2017-03-31T07:04:06.628Z,54
2017-03-31T07:05:07.412Z,54
2017-03-31T07:06:08.444Z,54
2017-03-31T07:07:09.226Z,54
2017-03-31T07:08:10.008Z,53
2017-03-31T07:09:10.791Z,52
2017-03-31T07:10:11.574Z,52
2017-03-31T07:11:12.611Z,52
2017-03-31T07:12:13.390Z,52
2017-03-31T07:13:14.175Z,52
2017-03-31T07:14:14.958Z,52
2017-03-31T07:15:15.739Z,52
2017-03-31T07:16:16.773Z,52
2017-03-31T07:17:17.557Z,51
2017-03-31T07:18:18.344Z,52
2017-03-31T07:19:19.124Z,51
2017-03-31T07:20:19.911Z,51
2017-03-31T07:21:20.942Z,50
2017-03-31T07:22:21.727Z,51
2017-03-31T07:23:22.510Z,50
2017-03-31T07:24:23.291Z,49
2017-03-31T07:25:24.079Z,49
2017-03-31T07:26:25.112Z,49
2017-03-31T07:27:25.897Z,48
2017-03-31T07:28:26.680Z,48
2017-03-31T07:29:27.465Z,48
2017-03-31T07:30:28.251Z,49
2017-03-31T07:31:29.289Z,48
2017-03-31T07:32:30.070Z,48
2017-03-31T07:33:30.856Z,47
2017-03-31T07:34:31.642Z,47
2017-03-31T07:35:32.425Z,46
2017-03-31T07:36:33.459Z,46
2017-03-31T07:37:34.246Z,46
2017-03-31T07:38:35.055Z,46
2017-03-31T07:39:35.812Z,46
2017-03-31T07:40:36.596Z,46
2017-03-31T07:41:37.639Z,46
2017-03-31T07:42:38.421Z,46
2017-03-31T07:43:39.243Z,46
2017-03-31T07:44:39.993Z,46
2017-03-31T07:45:40.778Z,47
2017-03-31T07:46:41.816Z,46
2017-03-31T07:47:42.598Z,47
2017-03-31T07:48:43.383Z,46
2017-03-31T07:49:44.167Z,46
2017-03-31T07:50:44.953Z,46
2017-03-31T07:51:45.989Z,46
2017-03-31T07:52:46.773Z,46
2017-03-31T07:53:47.559Z,46
2017-03-31T07:54:48.347Z,46
2017-03-31T07:55:49.142Z,46
2017-03-31T07:56:50.182Z,46
2017-03-31T07:57:50.967Z,46
2017-03-31T07:58:51.753Z,45
2017-03-31T07:59:52.539Z,45
2017-03-31T08:00:53.326Z,45
2017-03-31T08:01:54.368Z,44
2017-03-31T08:02:55.153Z,43
2017-03-31T08:03:55.944Z,42
2017-03-31T08:04:56.732Z,42
2017-03-31T08:05:57.523Z,41
2017-03-31T08:06:58.565Z,40
2017-03-31T08:07:59.536Z,40
2017-03-31T08:09:00.328Z,40
2017-03-31T08:10:01.117Z,40
2017-03-31T08:11:01.911Z,40
2017-03-31T08:12:02.952Z,42
2017-03-31T08:13:03.744Z,42
2017-03-31T08:14:04.723Z,41
2017-03-31T08:15:05.695Z,40
2017-03-31T08:16:06.485Z,40
2017-03-31T08:17:07.526Z,41
2017-03-31T08:18:08.309Z,40
2017-03-31T08:19:09.101Z,40
2017-03-31T08:20:09.895Z,40
2017-03-31T08:21:10.685Z,40
2017-03-31T08:22:11.722Z,38
2017-03-31T08:23:12.515Z,37
2017-03-31T08:24:13.309Z,37
2017-03-31T08:25:14.095Z,38
2017-03-31T08:26:14.890Z,38
2017-03-31T08:27:16.121Z,40
2017-03-31T08:28:16.912Z,39
2017-03-31T08:29:17.702Z,40
2017-03-31T08:30:18.490Z,39
2017-03-31T08:31:19.280Z,39
2017-03-31T08:32:20.321Z,38
2017-03-31T08:33:21.111Z,37
2017-03-31T08:34:21.901Z,38
2017-03-31T08:35:22.694Z,39
2017-03-31T08:36:23.482Z,38
2017-03-31T08:37:24.520Z,38
2017-03-31T08:38:25.309Z,37
2017-03-31T08:39:26.101Z,38
2017-03-31T08:40:26.895Z,37
2017-03-31T08:41:27.874Z,36
2017-03-31T08:42:28.916Z,36
2017-03-31T08:43:29.708Z,36
2017-03-31T08:44:30.497Z,36
2017-03-31T08:45:31.288Z,35
2017-03-31T08:46:32.082Z,35
2017-03-31T08:47:33.124Z,34
2017-03-31T08:48:33.915Z,34
2017-03-31T08:49:34.705Z,35
2017-03-31T08:50:35.495Z,34
2017-03-31T08:51:36.290Z,35
2017-03-31T08:52:37.335Z,35
2017-03-31T08:53:38.124Z,35
2017-03-31T08:54:38.916Z,36
2017-03-31T08:55:39.705Z,35
2017-03-31T08:56:40.493Z,35
2017-03-31T08:57:41.537Z,36
2017-03-31T08:58:42.328Z,36
2017-03-31T08:59:43.118Z,35
2017-03-31T09:00:43.911Z,36
2017-03-31T09:01:44.701Z,36
2017-03-31T09:02:45.738Z,36
2017-03-31T09:03:46.528Z,36
2017-03-31T09:04:47.321Z,36
2017-03-31T09:05:48.110Z,37
2017-03-31T09:06:48.898Z,37
2017-03-31T09:07:49.939Z,37
2017-03-31T09:08:50.727Z,37
2017-03-31T09:09:51.517Z,37
2017-03-31T09:10:52.306Z,38
2017-03-31T09:11:53.093Z,38
2017-03-31T09:12:54.132Z,38
2017-03-31T09:13:54.919Z,36
2017-03-31T09:14:55.709Z,36
2017-03-31T09:15:56.498Z,36
2017-03-31T09:16:57.286Z,36
2017-03-31T09:17:58.328Z,35
2017-03-31T09:18:59.122Z,35
2017-03-31T09:19:59.908Z,35
2017-03-31T09:21:00.700Z,34
2017-03-31T09:22:01.494Z,33
2017-03-31T09:23:02.531Z,34
2017-03-31T09:24:03.321Z,33
2017-03-31T09:25:04.115Z,34
2017-03-31T09:26:04.906Z,33
2017-03-31T09:27:05.698Z,33
2017-03-31T09:28:06.735Z,33
2017-03-31T09:29:07.526Z,33
2017-03-31T09:30:08.317Z,32
2017-03-31T09:31:09.107Z,33
2017-03-31T09:32:09.900Z,33
2017-03-31T09:33:10.938Z,32
2017-03-31T09:34:11.726Z,32
2017-03-31T09:35:12.514Z,33
2017-03-31T09:36:13.305Z,32
2017-03-31T09:37:14.097Z,33
2017-03-31T09:38:15.138Z,33
2017-03-31T09:39:15.930Z,33
2017-03-31T09:40:16.717Z,33
2017-03-31T09:41:17.507Z,33
2017-03-31T09:42:18.295Z,33
2017-03-31T09:43:19.335Z,32
2017-03-31T09:44:20.122Z,33
2017-03-31T09:45:20.913Z,32
2017-03-31T09:46:21.701Z,32
2017-03-31T09:47:22.489Z,31
2017-03-31T09:48:23.532Z,31
2017-03-31T09:49:24.324Z,31
2017-03-31T09:50:25.118Z,31
2017-03-31T09:51:25.910Z,31
2017-03-31T09:52:26.703Z,31
2017-03-31T09:53:27.744Z,32
2017-03-31T09:54:28.534Z,32
2017-03-31T09:55:29.327Z,32
2017-03-31T09:56:30.114Z,32
2017-03-31T09:57:30.905Z,31
2017-03-31T09:58:31.948Z,31
2017-03-31T09:59:32.741Z,31
2017-03-31T10:00:33.531Z,30
2017-03-31T10:01:34.323Z,30
2017-03-31T10:02:35.112Z,29
2017-03-31T10:03:36.153Z,30
2017-03-31T10:04:36.941Z,30
2017-03-31T10:05:37.735Z,31
2017-03-31T10:06:38.527Z,32
2017-03-31T10:07:39.325Z,32
2017-03-31T10:08:40.363Z,32
2017-03-31T10:09:41.155Z,32
2017-03-31T10:10:41.941Z,32
2017-03-31T10:11:42.734Z,32
2017-03-31T10:12:43.523Z,32
2017-03-31T10:13:44.565Z,32
2017-03-31T10:14:45.537Z,32
2017-03-31T10:15:46.326Z,32
2017-03-31T10:16:47.113Z,31
2017-03-31T10:17:47.900Z,31
2017-03-31T10:18:48.946Z,32
2017-03-31T10:19:49.920Z,32
2017-03-31T10:20:50.707Z,32
2017-03-31T10:21:51.499Z,32
2017-03-31T10:22:52.285Z,31
2017-03-31T10:23:53.325Z,32
2017-03-31T10:24:54.112Z,32
2017-03-31T10:25:54.900Z,30
2017-03-31T10:26:55.691Z,30
2017-03-31T10:27:56.476Z,30
2017-03-31T10:28:57.564Z,30
2017-03-31T10:29:58.350Z,31
2017-03-31T10:30:59.143Z,31
2017-03-31T10:31:59.933Z,31
2017-03-31T10:33:00.718Z,32
2017-03-31T10:34:01.755Z,31
2017-03-31T10:35:02.544Z,31
2017-03-31T10:36:03.331Z,31
2017-03-31T10:37:04.120Z,31
2017-03-31T10:38:04.909Z,31
2017-03-31T10:39:05.946Z,30
2017-03-31T10:40:06.734Z,30
2017-03-31T10:41:07.520Z,30
2017-03-31T10:42:08.310Z,30
2017-03-31T10:43:09.105Z,30
2017-03-31T10:44:10.143Z,30
2017-03-31T10:45:10.931Z,30
2017-03-31T10:46:11.719Z,30
2017-03-31T10:47:12.511Z,30
2017-03-31T10:48:13.303Z,29
2017-03-31T10:49:14.345Z,29
2017-03-31T10:50:15.135Z,29
2017-03-31T10:51:15.925Z,30
2017-03-31T10:52:16.714Z,30
2017-03-31T10:53:17.501Z,30
2017-03-31T10:54:18.536Z,31
2017-03-31T10:55:19.323Z,31
2017-03-31T10:56:20.109Z,31
2017-03-31T10:57:20.899Z,31
2017-03-31T10:58:21.685Z,31
2017-03-31T10:59:22.723Z,31
2017-03-31T11:00:23.513Z,31
2017-03-31T11:01:24.299Z,30
2017-03-31T11:02:25.086Z,30
2017-03-31T11:03:25.871Z,30
2017-03-31T11:04:26.910Z,30
2017-03-31T11:05:27.698Z,31
2017-03-31T11:06:28.483Z,31
2017-03-31T11:07:29.275Z,30
2017-03-31T11:08:30.059Z,31
2017-03-31T11:09:31.097Z,30
2017-03-31T11:10:31.883Z,31
2017-03-31T11:11:32.673Z,31
2017-03-31T11:12:33.457Z,31
2017-03-31T11:13:34.244Z,31
2017-03-31T11:14:35.283Z,31
2017-03-31T11:15:36.072Z,31
2017-03-31T11:16:36.854Z,31
2017-03-31T11:17:37.645Z,31
2017-03-31T11:18:38.431Z,31
2017-03-31T11:19:39.517Z,30
2017-03-31T11:20:40.307Z,30
2017-03-31T11:21:41.097Z,30
2017-03-31T11:22:41.882Z,30
2017-03-31T11:23:42.672Z,30
2017-03-31T11:24:43.711Z,29
2017-03-31T11:25:44.499Z,29
2017-03-31T11:26:45.284Z,29
2017-03-31T11:27:46.072Z,28
2017-03-31T11:28:46.862Z,29
2017-03-31T11:29:47.902Z,29
2017-03-31T11:30:48.688Z,29
2017-03-31T11:31:49.477Z,29
2017-03-31T11:32:50.266Z,29
2017-03-31T11:33:51.053Z,29
2017-03-31T11:34:52.093Z,28
2017-03-31T11:35:52.887Z,29
2017-03-31T11:36:53.676Z,28
2017-03-31T11:37:54.468Z,28
2017-03-31T11:38:55.259Z,28
2017-03-31T11:39:56.297Z,27
2017-03-31T11:40:57.088Z,27
2017-03-31T11:41:57.883Z,27
2017-03-31T11:42:58.673Z,27
2017-03-31T11:43:59.466Z,26
2017-03-31T11:45:00.511Z,26
2017-03-31T11:46:01.306Z,25
2017-03-31T11:47:02.096Z,25
2017-03-31T11:48:02.893Z,25
2017-03-31T11:49:03.688Z,25
2017-03-31T11:50:04.730Z,25
2017-03-31T11:51:05.525Z,26
2017-03-31T11:52:06.316Z,25
2017-03-31T11:53:07.110Z,25
2017-03-31T11:54:07.900Z,24
2017-03-31T11:55:08.947Z,25
2017-03-31T11:56:09.743Z,24
2017-03-31T11:57:10.536Z,24
2017-03-31T11:58:11.329Z,24
2017-03-31T11:59:12.120Z,24
2017-03-31T12:00:13.162Z,24
2017-03-31T12:01:13.956Z,25
2017-03-31T12:02:14.752Z,25
2017-03-31T12:03:15.543Z,24
2017-03-31T12:04:16.336Z,24
2017-03-31T12:05:17.376Z,24
2017-03-31T12:06:18.171Z,24
2017-03-31T12:07:18.962Z,24
2017-03-31T12:08:19.752Z,25
2017-03-31T12:09:20.543Z,26
2017-03-31T12:10:21.636Z,25
2017-03-31T12:11:22.426Z,23
2017-03-31T12:12:23.219Z,24
2017-03-31T12:13:24.013Z,23
2017-03-31T12:14:24.803Z,23
2017-03-31T12:15:25.898Z,24
2017-03-31T12:16:26.689Z,23
2017-03-31T12:17:27.481Z,23
2017-03-31T12:18:28.274Z,22
2017-03-31T12:19:29.070Z,23
2017-03-31T12:20:30.165Z,22
2017-03-31T12:21:30.962Z,21
2017-03-31T12:22:31.756Z,21
2017-03-31T12:23:32.549Z,22
2017-03-31T12:24:33.342Z,22
2017-03-31T12:25:34.434Z,22
2017-03-31T12:26:35.227Z,22
2017-03-31T12:27:36.023Z,22
2017-03-31T12:28:36.818Z,22
2017-03-31T12:29:37.616Z,22
2017-03-31T12:30:38.654Z,21
2017-03-31T12:31:39.450Z,21
2017-03-31T12:32:40.248Z,22
2017-03-31T12:33:41.227Z,21
2017-03-31T12:34:42.025Z,20
2017-03-31T12:35:43.072Z,20
2017-03-31T12:36:43.870Z,21
2017-03-31T12:37:44.666Z,21
2017-03-31T12:38:45.458Z,21
2017-03-31T12:39:46.258Z,21
2017-03-31T12:40:47.303Z,22
2017-03-31T12:41:48.097Z,21
2017-03-31T12:42:48.889Z,22
2017-03-31T12:43:49.683Z,21
2017-03-31T12:44:50.477Z,21
2017-03-31T12:45:51.522Z,21
2017-03-31T12:46:52.315Z,21
2017-03-31T12:47:53.107Z,21
2017-03-31T12:48:53.904Z,21
2017-03-31T12:49:54.696Z,21
2017-03-31T12:50:55.739Z,20
2017-03-31T12:51:56.533Z,20
2017-03-31T12:52:57.328Z,21
2017-03-31T12:53:58.125Z,21
2017-03-31T12:54:58.919Z,21
2017-03-31T12:55:59.964Z,21
2017-03-31T12:57:00.759Z,21
2017-03-31T12:58:01.549Z,20
2017-03-31T12:59:02.343Z,20
2017-03-31T13:00:03.138Z,20
2017-03-31T13:01:04.186Z,20
2017-03-31T13:02:04.980Z,18
2017-03-31T13:03:05.773Z,18
2017-03-31T13:04:06.572Z,18
2017-03-31T13:05:07.370Z,18
2017-03-31T13:06:08.417Z,18
2017-03-31T13:07:09.213Z,19
2017-03-31T13:08:10.010Z,19
2017-03-31T13:09:10.807Z,18
2017-03-31T13:10:11.608Z,19
2017-03-31T13:11:12.655Z,19
2017-03-31T13:12:13.454Z,19
2017-03-31T13:13:14.256Z,19
2017-03-31T13:14:15.049Z,19
2017-03-31T13:15:15.845Z,19
2017-03-31T13:16:16.894Z,19
2017-03-31T13:17:17.685Z,18
2017-03-31T13:18:18.479Z,18
2017-03-31T13:19:19.273Z,17
2017-03-31T13:20:20.072Z,17
2017-03-31T13:21:21.115Z,18
2017-03-31T13:22:21.908Z,17
2017-03-31T13:23:22.702Z,18
2017-03-31T13:24:23.495Z,19
2017-03-31T13:25:24.288Z,19
2017-03-31T13:26:25.331Z,19
2017-03-31T13:27:26.127Z,19
2017-03-31T13:28:26.917Z,19
2017-03-31T13:29:27.897Z,19
2017-03-31T13:30:28.696Z,19
2017-03-31T13:31:29.779Z,19
2017-03-31T13:32:30.572Z,19
2017-03-31T13:33:31.362Z,19
2017-03-31T13:34:32.337Z,19
2017-03-31T13:35:33.127Z,19
2017-03-31T13:36:34.169Z,19
2017-03-31T13:37:34.962Z,19
2017-03-31T13:38:35.754Z,19
2017-03-31T13:39:36.543Z,20
2017-03-31T13:40:37.334Z,19
2017-03-31T13:41:38.383Z,19
2017-03-31T13:42:39.167Z,19
2017-03-31T13:43:39.962Z,20
2017-03-31T13:44:40.752Z,19
2017-03-31T13:45:41.544Z,19
2017-03-31T13:46:42.582Z,19
2017-03-31T13:47:43.375Z,19
2017-03-31T13:48:44.170Z,19
2017-03-31T13:49:44.958Z,19
2017-03-31T13:50:45.755Z,19
2017-03-31T13:51:46.982Z,19
2017-03-31T13:52:47.774Z,19
2017-03-31T13:53:48.569Z,19
2017-03-31T13:54:49.364Z,19
2017-03-31T13:55:50.344Z,18
2017-03-31T13:56:51.388Z,18
2017-03-31T13:57:52.177Z,18
2017-03-31T13:58:52.969Z,19
2017-03-31T13:59:53.762Z,19
2017-03-31T14:00:54.557Z,19
2017-03-31T14:01:55.598Z,19
2017-03-31T14:02:56.391Z,20
2017-03-31T14:03:57.182Z,19
2017-03-31T14:04:57.975Z,19
2017-03-31T14:05:58.952Z,19
2017-03-31T14:06:59.996Z,19
2017-03-31T14:08:00.789Z,19
2017-03-31T14:09:01.771Z,18
2017-03-31T14:10:02.562Z,18
2017-03-31T14:11:03.351Z,17
2017-03-31T14:12:04.395Z,17
2017-03-31T14:13:05.186Z,17
2017-03-31T14:14:05.976Z,17
2017-03-31T14:15:06.771Z,17
2017-03-31T14:16:07.560Z,17
2017-03-31T14:17:08.607Z,17
2017-03-31T14:18:09.400Z,17
2017-03-31T14:19:10.192Z,17
2017-03-31T14:20:10.975Z,16
2017-03-31T14:21:11.768Z,17
2017-03-31T14:22:12.807Z,17
2017-03-31T14:23:13.600Z,17
2017-03-31T14:24:14.390Z,17
2017-03-31T14:25:15.186Z,17
2017-03-31T14:26:15.979Z,17
2017-03-31T14:27:17.023Z,16